sensor_id;sensor_type;location;lat;lon;timestamp;pressure;altitude;pressure_sealevel;temperature;humidity
45285;BME280;31026;43.780;25.948;2023-04-26T00:00:32;99794.66;;;19.29;69.40
45285;BME280;31026;43.780;25.948;2023-04-26T00:03:00;99802.56;;;19.31;69.34
45285;BME280;31026;43.780;25.948;2023-04-26T00:05:31;99789.66;;;19.34;69.26
45285;BME280;31026;43.780;25.948;2023-04-26T00:08:02;99795.03;;;19.34;69.40
45285;BME280;31026;43.780;25.948;2023-04-26T00:10:30;99797.00;;;19.24;69.41
45285;BME280;31026;43.780;25.948;2023-04-26T00:12:59;99793.31;;;19.25;69.47
45285;BME280;31026;43.780;25.948;2023-04-26T00:15:27;99805.34;;;19.21;69.75
45285;BME280;31026;43.780;25.948;2023-04-26T00:17:56;99778.72;;;19.27;69.30
45285;BME280;31026;43.780;25.948;2023-04-26T00:20:25;99794.81;;;19.27;69.32
45285;BME280;31026;43.780;25.948;2023-04-26T00:22:55;99790.31;;;19.28;69.18
45285;BME280;31026;43.780;25.948;2023-04-26T00:25:24;99786.78;;;19.27;69.25
45285;BME280;31026;43.780;25.948;2023-04-26T00:27:52;99784.56;;;19.15;69.53
45285;BME280;31026;43.780;25.948;2023-04-26T00:30:21;99797.34;;;19.29;69.06
45285;BME280;31026;43.780;25.948;2023-04-26T00:32:49;99800.81;;;19.21;69.54
45285;BME280;31026;43.780;25.948;2023-04-26T00:35:17;99786.44;;;19.22;69.34
45285;BME280;31026;43.780;25.948;2023-04-26T00:37:45;99786.75;;;19.19;69.44
45285;BME280;31026;43.780;25.948;2023-04-26T00:40:16;99786.59;;;19.21;69.36
45285;BME280;31026;43.780;25.948;2023-04-26T00:42:45;99775.50;;;19.16;69.34
45285;BME280;31026;43.780;25.948;2023-04-26T00:45:13;99778.84;;;19.18;69.52
45285;BME280;31026;43.780;25.948;2023-04-26T00:47:41;99780.84;;;19.16;69.53
45285;BME280;31026;43.780;25.948;2023-04-26T00:50:10;99783.22;;;19.19;69.40
45285;BME280;31026;43.780;25.948;2023-04-26T00:52:38;99783.72;;;19.14;69.64
45285;BME280;31026;43.780;25.948;2023-04-26T00:55:07;99762.78;;;19.18;69.28
45285;BME280;31026;43.780;25.948;2023-04-26T00:57:38;99752.56;;;19.21;69.20
45285;BME280;31026;43.780;25.948;2023-04-26T01:00:07;99784.44;;;19.24;69.20
45285;BME280;31026;43.780;25.948;2023-04-26T01:02:36;99772.88;;;19.24;69.22
45285;BME280;31026;43.780;25.948;2023-04-26T01:05:05;99768.88;;;19.28;69.32
45285;BME280;31026;43.780;25.948;2023-04-26T01:07:34;99766.84;;;19.22;69.21
45285;BME280;31026;43.780;25.948;2023-04-26T01:10:03;99765.34;;;18.93;70.14
45285;BME280;31026;43.780;25.948;2023-04-26T01:12:33;99775.56;;;18.98;70.94
45285;BME280;31026;43.780;25.948;2023-04-26T01:15:04;99766.75;;;19.05;71.60
45285;BME280;31026;43.780;25.948;2023-04-26T01:17:33;99786.13;;;18.99;71.50
45285;BME280;31026;43.780;25.948;2023-04-26T01:20:02;99768.56;;;18.97;71.08
45285;BME280;31026;43.780;25.948;2023-04-26T01:22:34;99779.31;;;19.05;71.12
45285;BME280;31026;43.780;25.948;2023-04-26T01:25:03;99778.47;;;19.04;71.11
45285;BME280;31026;43.780;25.948;2023-04-26T01:27:33;99781.19;;;19.13;71.02
45285;BME280;31026;43.780;25.948;2023-04-26T01:30:01;99778.00;;;19.09;71.00
45285;BME280;31026;43.780;25.948;2023-04-26T01:32:29;99764.59;;;19.09;70.84
45285;BME280;31026;43.780;25.948;2023-04-26T01:34:59;99778.31;;;19.06;70.93
45285;BME280;31026;43.780;25.948;2023-04-26T01:37:27;99772.81;;;19.16;70.53
45285;BME280;31026;43.780;25.948;2023-04-26T01:39:58;99765.59;;;19.08;70.78
45285;BME280;31026;43.780;25.948;2023-04-26T01:42:26;99757.56;;;19.08;70.59
45285;BME280;31026;43.780;25.948;2023-04-26T01:44:55;99754.00;;;18.99;71.00
45285;BME280;31026;43.780;25.948;2023-04-26T01:47:23;99764.78;;;19.58;69.46
45285;BME280;31026;43.780;25.948;2023-04-26T01:49:51;99758.19;;;20.20;67.55
45285;BME280;31026;43.780;25.948;2023-04-26T01:52:21;99761.00;;;20.68;66.33
45285;BME280;31026;43.780;25.948;2023-04-26T01:54:49;99756.59;;;20.83;66.29
45285;BME280;31026;43.780;25.948;2023-04-26T01:57:20;99755.31;;;20.62;66.71
45285;BME280;31026;43.780;25.948;2023-04-26T01:59:49;99750.28;;;20.18;67.82
45285;BME280;31026;43.780;25.948;2023-04-26T02:02:18;99753.13;;;20.17;67.86
45285;BME280;31026;43.780;25.948;2023-04-26T02:04:46;99748.94;;;20.31;67.58
45285;BME280;31026;43.780;25.948;2023-04-26T02:07:15;99736.50;;;20.46;67.19
45285;BME280;31026;43.780;25.948;2023-04-26T02:09:43;99739.84;;;20.73;66.60
45285;BME280;31026;43.780;25.948;2023-04-26T02:12:12;99747.66;;;20.99;65.87
45285;BME280;31026;43.780;25.948;2023-04-26T02:14:42;99736.00;;;21.15;65.23
45285;BME280;31026;43.780;25.948;2023-04-26T02:17:11;99745.41;;;21.19;65.13
45285;BME280;31026;43.780;25.948;2023-04-26T02:19:40;99735.03;;;21.08;65.61
45285;BME280;31026;43.780;25.948;2023-04-26T02:22:08;99732.00;;;21.02;65.83
45285;BME280;31026;43.780;25.948;2023-04-26T02:24:37;99734.06;;;20.92;66.15
45285;BME280;31026;43.780;25.948;2023-04-26T02:27:06;99735.56;;;20.95;66.16
45285;BME280;31026;43.780;25.948;2023-04-26T02:29:34;99733.06;;;20.93;66.06
45285;BME280;31026;43.780;25.948;2023-04-26T02:32:06;99744.28;;;20.97;66.21
45285;BME280;31026;43.780;25.948;2023-04-26T02:34:34;99737.25;;;20.96;66.20
45285;BME280;31026;43.780;25.948;2023-04-26T02:37:03;99734.41;;;20.97;65.98
45285;BME280;31026;43.780;25.948;2023-04-26T02:39:31;99737.09;;;20.97;66.10
45285;BME280;31026;43.780;25.948;2023-04-26T02:41:59;99733.88;;;21.02;66.04
45285;BME280;31026;43.780;25.948;2023-04-26T02:44:28;99730.69;;;20.98;66.18
45285;BME280;31026;43.780;25.948;2023-04-26T02:46:56;99738.91;;;21.05;65.89
45285;BME280;31026;43.780;25.948;2023-04-26T02:49:27;99744.47;;;21.03;65.71
45285;BME280;31026;43.780;25.948;2023-04-26T02:51:55;99735.91;;;21.00;66.01
45285;BME280;31026;43.780;25.948;2023-04-26T02:54:24;99746.97;;;21.05;65.85
45285;BME280;31026;43.780;25.948;2023-04-26T02:56:52;99736.22;;;21.05;65.90
45285;BME280;31026;43.780;25.948;2023-04-26T02:59:22;99735.56;;;21.03;65.88
45285;BME280;31026;43.780;25.948;2023-04-26T03:01:50;99742.44;;;21.05;65.97
45285;BME280;31026;43.780;25.948;2023-04-26T03:04:18;99733.72;;;21.03;65.80
45285;BME280;31026;43.780;25.948;2023-04-26T03:06:49;99745.41;;;21.11;65.78
45285;BME280;31026;43.780;25.948;2023-04-26T03:09:17;99745.94;;;21.06;65.94
45285;BME280;31026;43.780;25.948;2023-04-26T03:11:46;99741.78;;;21.03;66.04
45285;BME280;31026;43.780;25.948;2023-04-26T03:14:14;99746.28;;;21.11;65.93
45285;BME280;31026;43.780;25.948;2023-04-26T03:16:43;99743.06;;;21.16;65.90
45285;BME280;31026;43.780;25.948;2023-04-26T03:19:12;99747.94;;;21.12;65.98
45285;BME280;31026;43.780;25.948;2023-04-26T03:21:40;99747.16;;;21.03;66.56
45285;BME280;31026;43.780;25.948;2023-04-26T03:24:11;99750.34;;;20.99;66.82
45285;BME280;31026;43.780;25.948;2023-04-26T03:26:40;99770.38;;;20.88;67.46
45285;BME280;31026;43.780;25.948;2023-04-26T03:29:08;99747.19;;;20.79;67.88
45285;BME280;31026;43.780;25.948;2023-04-26T03:31:36;99762.66;;;20.77;67.97
45285;BME280;31026;43.780;25.948;2023-04-26T03:34:05;99742.84;;;20.78;67.92
45285;BME280;31026;43.780;25.948;2023-04-26T03:36:33;99758.81;;;20.79;67.97
45285;BME280;31026;43.780;25.948;2023-04-26T03:39:02;99761.00;;;20.76;68.16
45285;BME280;31026;43.780;25.948;2023-04-26T03:41:33;99762.66;;;20.77;68.22
45285;BME280;31026;43.780;25.948;2023-04-26T03:44:03;99756.94;;;20.80;67.92
45285;BME280;31026;43.780;25.948;2023-04-26T03:46:32;99676.78;;;20.36;67.62
45285;BME280;31026;43.780;25.948;2023-04-26T03:49:00;99772.06;;;20.89;67.35
45285;BME280;31026;43.780;25.948;2023-04-26T03:51:28;99771.53;;;20.94;67.12
45285;BME280;31026;43.780;25.948;2023-04-26T03:53:57;99775.72;;;20.96;66.96
45285;BME280;31026;43.780;25.948;2023-04-26T03:56:25;99776.22;;;21.00;66.95
45285;BME280;31026;43.780;25.948;2023-04-26T03:58:56;99788.81;;;20.99;66.99
45285;BME280;31026;43.780;25.948;2023-04-26T04:01:24;99782.81;;;20.73;67.68
45285;BME280;31026;43.780;25.948;2023-04-26T04:03:52;99786.53;;;20.63;67.63
45285;BME280;31026;43.780;25.948;2023-04-26T04:06:21;99780.50;;;20.53;67.85
45285;BME280;31026;43.780;25.948;2023-04-26T04:08:49;99801.47;;;20.50;67.97
45285;BME280;31026;43.780;25.948;2023-04-26T04:11:17;99793.56;;;20.40;68.42
45285;BME280;31026;43.780;25.948;2023-04-26T04:13:45;99798.97;;;20.23;68.56
45285;BME280;31026;43.780;25.948;2023-04-26T04:16:16;99809.03;;;20.21;68.77
45285;BME280;31026;43.780;25.948;2023-04-26T04:18:45;99816.41;;;20.19;69.03
45285;BME280;31026;43.780;25.948;2023-04-26T04:21:13;99818.19;;;19.94;70.25
45285;BME280;31026;43.780;25.948;2023-04-26T04:23:41;99831.75;;;19.84;70.44
45285;BME280;31026;43.780;25.948;2023-04-26T04:26:10;99816.84;;;19.90;69.15
45285;BME280;31026;43.780;25.948;2023-04-26T04:28:39;99833.00;;;20.23;66.99
45285;BME280;31026;43.780;25.948;2023-04-26T04:31:09;99826.47;;;20.58;66.83
45285;BME280;31026;43.780;25.948;2023-04-26T04:33:40;99833.19;;;20.46;67.40
45285;BME280;31026;43.780;25.948;2023-04-26T04:36:08;99825.59;;;20.25;67.83
45285;BME280;31026;43.780;25.948;2023-04-26T04:38:36;99819.06;;;20.11;68.42
45285;BME280;31026;43.780;25.948;2023-04-26T04:41:05;99831.47;;;19.96;68.72
45285;BME280;31026;43.780;25.948;2023-04-26T04:43:34;99825.97;;;20.14;68.37
45285;BME280;31026;43.780;25.948;2023-04-26T04:46:02;99834.97;;;19.96;69.21
45285;BME280;31026;43.780;25.948;2023-04-26T04:48:31;99842.22;;;20.12;68.95
45285;BME280;31026;43.780;25.948;2023-04-26T04:51:02;99846.25;;;20.08;68.70
45285;BME280;31026;43.780;25.948;2023-04-26T04:53:30;99823.78;;;20.25;68.11
45285;BME280;31026;43.780;25.948;2023-04-26T04:55:58;99826.13;;;20.20;67.82
45285;BME280;31026;43.780;25.948;2023-04-26T04:58:27;99830.31;;;20.31;66.02
45285;BME280;31026;43.780;25.948;2023-04-26T05:00:55;99833.50;;;20.43;66.18
45285;BME280;31026;43.780;25.948;2023-04-26T05:03:25;99838.72;;;20.36;67.36
45285;BME280;31026;43.780;25.948;2023-04-26T05:05:53;99849.09;;;20.23;67.77
45285;BME280;31026;43.780;25.948;2023-04-26T05:08:24;99838.69;;;20.03;68.62
45285;BME280;31026;43.780;25.948;2023-04-26T05:10:52;99863.66;;;19.88;69.33
45285;BME280;31026;43.780;25.948;2023-04-26T05:13:21;99834.31;;;19.94;69.51
45285;BME280;31026;43.780;25.948;2023-04-26T05:15:49;99843.19;;;20.03;69.18
45285;BME280;31026;43.780;25.948;2023-04-26T05:18:18;99823.59;;;20.11;68.77
45285;BME280;31026;43.780;25.948;2023-04-26T05:20:46;99821.56;;;20.13;68.54
45285;BME280;31026;43.780;25.948;2023-04-26T05:23:14;99814.03;;;20.08;68.79
45285;BME280;31026;43.780;25.948;2023-04-26T05:25:45;99803.31;;;20.08;68.61
45285;BME280;31026;43.780;25.948;2023-04-26T05:28:13;99803.63;;;20.13;68.61
45285;BME280;31026;43.780;25.948;2023-04-26T05:30:42;99795.41;;;19.98;69.23
45285;BME280;31026;43.780;25.948;2023-04-26T05:33:10;99780.78;;;19.84;69.43
45285;BME280;31026;43.780;25.948;2023-04-26T05:35:38;99799.25;;;19.96;69.62
45285;BME280;31026;43.780;25.948;2023-04-26T05:38:06;99800.31;;;20.19;68.54
45285;BME280;31026;43.780;25.948;2023-04-26T05:40:35;99799.94;;;20.22;68.78
45285;BME280;31026;43.780;25.948;2023-04-26T05:43:06;99806.66;;;20.26;68.55
45285;BME280;31026;43.780;25.948;2023-04-26T05:45:34;99793.25;;;20.18;68.91
45285;BME280;31026;43.780;25.948;2023-04-26T05:48:02;99793.22;;;20.10;69.06
45285;BME280;31026;43.780;25.948;2023-04-26T05:50:31;99809.50;;;20.09;69.22
45285;BME280;31026;43.780;25.948;2023-04-26T05:52:59;99810.69;;;20.06;69.42
45285;BME280;31026;43.780;25.948;2023-04-26T05:55:27;99810.00;;;20.04;69.46
45285;BME280;31026;43.780;25.948;2023-04-26T05:57:56;99801.28;;;20.10;69.19
45285;BME280;31026;43.780;25.948;2023-04-26T06:00:27;99812.03;;;20.10;69.39
45285;BME280;31026;43.780;25.948;2023-04-26T06:02:55;99809.34;;;20.02;69.44
45285;BME280;31026;43.780;25.948;2023-04-26T06:05:23;99810.69;;;20.14;69.22
45285;BME280;31026;43.780;25.948;2023-04-26T06:07:51;99808.50;;;20.18;69.11
45285;BME280;31026;43.780;25.948;2023-04-26T06:10:20;99807.50;;;20.19;68.80
45285;BME280;31026;43.780;25.948;2023-04-26T06:12:49;99801.28;;;20.18;69.12
45285;BME280;31026;43.780;25.948;2023-04-26T06:15:17;99797.94;;;20.16;69.20
45285;BME280;31026;43.780;25.948;2023-04-26T06:17:48;99804.63;;;20.12;69.06
45285;BME280;31026;43.780;25.948;2023-04-26T06:20:16;99800.91;;;19.89;69.94
45285;BME280;31026;43.780;25.948;2023-04-26T06:22:44;99793.22;;;19.94;69.86
45285;BME280;31026;43.780;25.948;2023-04-26T06:25:13;99806.66;;;20.02;69.83
45285;BME280;31026;43.780;25.948;2023-04-26T06:27:41;99803.97;;;20.18;69.16
45285;BME280;31026;43.780;25.948;2023-04-26T06:30:09;99806.66;;;20.10;69.69
45285;BME280;31026;43.780;25.948;2023-04-26T06:32:39;99797.09;;;20.08;69.45
45285;BME280;31026;43.780;25.948;2023-04-26T06:35:10;99794.56;;;20.22;69.15
45285;BME280;31026;43.780;25.948;2023-04-26T06:37:38;99801.44;;;20.25;69.19
45285;BME280;31026;43.780;25.948;2023-04-26T06:40:07;99804.28;;;20.15;69.36
45285;BME280;31026;43.780;25.948;2023-04-26T06:42:38;99793.56;;;20.07;69.43
45285;BME280;31026;43.780;25.948;2023-04-26T06:45:07;99822.91;;;20.00;69.51
45285;BME280;31026;43.780;25.948;2023-04-26T06:47:35;99805.97;;;20.08;69.42
45285;BME280;31026;43.780;25.948;2023-04-26T06:50:04;99814.69;;;20.02;69.41
45285;BME280;31026;43.780;25.948;2023-04-26T06:52:35;99805.78;;;19.93;69.64
45285;BME280;31026;43.780;25.948;2023-04-26T06:55:03;99821.88;;;19.93;69.54
45285;BME280;31026;43.780;25.948;2023-04-26T06:57:31;99798.41;;;19.95;69.39
45285;BME280;31026;43.780;25.948;2023-04-26T07:00:00;99810.66;;;19.98;69.31
45285;BME280;31026;43.780;25.948;2023-04-26T07:02:28;99818.88;;;20.04;69.04
45285;BME280;31026;43.780;25.948;2023-04-26T07:04:56;99814.34;;;20.05;68.97
45285;BME280;31026;43.780;25.948;2023-04-26T07:07:24;99814.19;;;19.98;69.18
45285;BME280;31026;43.780;25.948;2023-04-26T07:09:55;99811.34;;;20.00;68.95
45285;BME280;31026;43.780;25.948;2023-04-26T07:12:24;99823.75;;;20.09;68.65
45285;BME280;31026;43.780;25.948;2023-04-26T07:14:52;99801.78;;;20.05;68.88
45285;BME280;31026;43.780;25.948;2023-04-26T07:17:20;99821.25;;;20.08;68.62
45285;BME280;31026;43.780;25.948;2023-04-26T07:19:48;99807.16;;;20.22;68.43
45285;BME280;31026;43.780;25.948;2023-04-26T07:22:17;99809.34;;;20.18;67.99
45285;BME280;31026;43.780;25.948;2023-04-26T07:24:45;99808.97;;;20.05;67.81
45285;BME280;31026;43.780;25.948;2023-04-26T07:27:16;99818.03;;;19.96;67.74
45285;BME280;31026;43.780;25.948;2023-04-26T07:29:44;99833.47;;;19.94;67.46
45285;BME280;31026;43.780;25.948;2023-04-26T07:32:13;99806.94;;;19.91;66.43
45285;BME280;31026;43.780;25.948;2023-04-26T07:34:41;99811.16;;;19.51;53.82
45285;BME280;31026;43.780;25.948;2023-04-26T07:37:10;99809.88;;;19.63;60.24
45285;BME280;31026;43.780;25.948;2023-04-26T07:39:38;99817.25;;;19.69;61.92
45285;BME280;31026;43.780;25.948;2023-04-26T07:42:06;99815.66;;;19.76;60.81
45285;BME280;31026;43.780;25.948;2023-04-26T07:44:37;99820.66;;;19.79;61.64
45285;BME280;31026;43.780;25.948;2023-04-26T07:47:10;99828.06;;;19.85;61.44
45285;BME280;31026;43.780;25.948;2023-04-26T07:49:38;99828.78;;;19.96;61.38
45285;BME280;31026;43.780;25.948;2023-04-26T07:52:07;99821.06;;;20.09;61.41
45285;BME280;31026;43.780;25.948;2023-04-26T07:54:35;99815.69;;;20.01;61.56
45285;BME280;31026;43.780;25.948;2023-04-26T07:57:04;99812.47;;;19.89;62.05
45285;BME280;31026;43.780;25.948;2023-04-26T07:59:32;99815.16;;;19.89;61.96
45285;BME280;31026;43.780;25.948;2023-04-26T08:02:03;99826.09;;;19.96;61.90
45285;BME280;31026;43.780;25.948;2023-04-26T08:04:32;99816.53;;;20.01;61.83
45285;BME280;31026;43.780;25.948;2023-04-26T08:07:01;99819.72;;;20.05;61.60
45285;BME280;31026;43.780;25.948;2023-04-26T08:09:29;99813.00;;;20.09;61.71
45285;BME280;31026;43.780;25.948;2023-04-26T08:11:57;99819.41;;;20.16;61.72
45285;BME280;31026;43.780;25.948;2023-04-26T08:14:26;99824.78;;;20.08;61.66
45285;BME280;31026;43.780;25.948;2023-04-26T08:16:55;99811.34;;;20.00;61.77
45285;BME280;31026;43.780;25.948;2023-04-26T08:19:26;99831.47;;;19.96;61.88
45285;BME280;31026;43.780;25.948;2023-04-26T08:21:56;99825.22;;;19.87;62.09
45285;BME280;31026;43.780;25.948;2023-04-26T08:24:25;99834.63;;;19.91;61.71
45285;BME280;31026;43.780;25.948;2023-04-26T08:26:53;99826.75;;;19.90;61.74
45285;BME280;31026;43.780;25.948;2023-04-26T08:29:22;99832.25;;;19.80;62.03
45285;BME280;31026;43.780;25.948;2023-04-26T08:31:51;99829.00;;;19.68;61.07
45285;BME280;31026;43.780;25.948;2023-04-26T08:34:19;99818.84;;;19.80;61.31
45285;BME280;31026;43.780;25.948;2023-04-26T08:36:50;99822.03;;;19.83;60.24
45285;BME280;31026;43.780;25.948;2023-04-26T08:39:18;99820.00;;;19.85;61.00
45285;BME280;31026;43.780;25.948;2023-04-26T08:41:48;99830.59;;;19.87;60.69
45285;BME280;31026;43.780;25.948;2023-04-26T08:44:17;99812.69;;;20.04;60.61
45285;BME280;31026;43.780;25.948;2023-04-26T08:46:52;99825.91;;;19.97;60.43
45285;BME280;31026;43.780;25.948;2023-04-26T08:49:35;99819.03;;;19.86;60.67
45285;BME280;31026;43.780;25.948;2023-04-26T08:52:10;99818.84;;;19.80;60.90
45285;BME280;31026;43.780;25.948;2023-04-26T08:54:40;99810.97;;;19.78;61.33
45285;BME280;31026;43.780;25.948;2023-04-26T08:57:09;99821.00;;;19.76;61.34
45285;BME280;31026;43.780;25.948;2023-04-26T08:59:37;99832.59;;;19.93;61.95
45285;BME280;31026;43.780;25.948;2023-04-26T09:02:06;99816.22;;;20.13;61.75
45285;BME280;31026;43.780;25.948;2023-04-26T09:04:34;99825.44;;;20.02;61.90
45285;BME280;31026;43.780;25.948;2023-04-26T09:07:03;99820.72;;;19.96;61.85
45285;BME280;31026;43.780;25.948;2023-04-26T09:09:40;99829.47;;;20.06;61.16
45285;BME280;31026;43.780;25.948;2023-04-26T09:12:09;99819.06;;;20.11;61.61
45285;BME280;31026;43.780;25.948;2023-04-26T09:14:37;99825.09;;;20.13;61.23
45285;BME280;31026;43.780;25.948;2023-04-26T09:17:05;99824.25;;;20.13;61.45
45285;BME280;31026;43.780;25.948;2023-04-26T09:19:51;99821.41;;;20.14;63.32
45285;BME280;31026;43.780;25.948;2023-04-26T09:22:29;99819.06;;;20.11;63.25
45285;BME280;31026;43.780;25.948;2023-04-26T09:25:00;99832.00;;;20.16;62.17
45285;BME280;31026;43.780;25.948;2023-04-26T09:27:33;99820.22;;;20.09;62.70
45285;BME280;31026;43.780;25.948;2023-04-26T09:30:03;99819.56;;;20.15;62.28
45285;BME280;31026;43.780;25.948;2023-04-26T09:32:46;99823.44;;;20.20;62.45
45285;BME280;31026;43.780;25.948;2023-04-26T09:35:22;99819.25;;;20.18;62.87
45285;BME280;31026;43.780;25.948;2023-04-26T09:37:52;99822.09;;;20.24;63.41
45285;BME280;31026;43.780;25.948;2023-04-26T09:40:24;99827.47;;;20.16;65.13
45285;BME280;31026;43.780;25.948;2023-04-26T09:42:59;99818.06;;;20.20;63.33
45285;BME280;31026;43.780;25.948;2023-04-26T09:45:28;99814.41;;;20.21;64.26
45285;BME280;31026;43.780;25.948;2023-04-26T09:50:41;99816.38;;;20.11;66.66
45285;BME280;31026;43.780;25.948;2023-04-26T09:53:10;99824.63;;;20.18;66.55
45285;BME280;31026;43.780;25.948;2023-04-26T09:55:40;99813.00;;;20.17;67.10
45285;BME280;31026;43.780;25.948;2023-04-26T09:58:09;99818.25;;;20.35;66.27
45285;BME280;31026;43.780;25.948;2023-04-26T10:00:37;99804.31;;;20.32;66.02
45285;BME280;31026;43.780;25.948;2023-04-26T10:03:08;99812.69;;;20.37;65.51
45285;BME280;31026;43.780;25.948;2023-04-26T10:05:36;99804.13;;;20.25;66.97
45285;BME280;31026;43.780;25.948;2023-04-26T10:08:05;99804.47;;;20.22;65.78
45285;BME280;31026;43.780;25.948;2023-04-26T10:10:34;99815.69;;;20.17;66.01
45285;BME280;31026;43.780;25.948;2023-04-26T10:13:07;99806.50;;;20.20;65.89
45285;BME280;31026;43.780;25.948;2023-04-26T10:15:35;99803.97;;;20.10;65.24
45285;BME280;31026;43.780;25.948;2023-04-26T10:18:03;99802.13;;;20.11;65.93
45285;BME280;31026;43.780;25.948;2023-04-26T10:20:32;99791.22;;;20.04;65.69
45285;BME280;31026;43.780;25.948;2023-04-26T10:23:00;99795.25;;;20.16;65.32
45285;BME280;31026;43.780;25.948;2023-04-26T10:25:34;99794.56;;;20.22;65.87
45285;BME280;31026;43.780;25.948;2023-04-26T10:28:03;99795.25;;;20.16;65.93
45285;BME280;31026;43.780;25.948;2023-04-26T10:30:34;99778.81;;;20.19;66.56
45285;BME280;31026;43.780;25.948;2023-04-26T10:33:20;99809.03;;;20.21;64.13
45285;BME280;31026;43.780;25.948;2023-04-26T10:35:58;99794.41;;;20.24;63.35
45285;BME280;31026;43.780;25.948;2023-04-26T10:38:27;99802.78;;;20.21;62.95
45285;BME280;31026;43.780;25.948;2023-04-26T10:40:55;99819.25;;;20.34;63.09
45285;BME280;31026;43.780;25.948;2023-04-26T10:43:43;99794.09;;;20.35;63.68
45285;BME280;31026;43.780;25.948;2023-04-26T10:48:57;99798.94;;;20.40;62.46
45285;BME280;31026;43.780;25.948;2023-04-26T10:51:26;99796.28;;;20.32;61.69
45285;BME280;31026;43.780;25.948;2023-04-26T10:53:57;99789.88;;;20.33;61.81
45285;BME280;31026;43.780;25.948;2023-04-26T10:59:10;99790.53;;;20.35;61.67
45285;BME280;31026;43.780;25.948;2023-04-26T11:01:39;99779.81;;;20.43;62.00
45285;BME280;31026;43.780;25.948;2023-04-26T11:04:10;99794.25;;;20.34;61.79
45285;BME280;31026;43.780;25.948;2023-04-26T11:06:48;99791.22;;;20.37;62.18
45285;BME280;31026;43.780;25.948;2023-04-26T11:12:02;99790.19;;;19.97;61.17
45285;BME280;31026;43.780;25.948;2023-04-26T11:14:31;99807.31;;;19.88;61.99
45285;BME280;31026;43.780;25.948;2023-04-26T11:17:01;99804.25;;;19.82;62.52
45285;BME280;31026;43.780;25.948;2023-04-26T11:19:33;99796.59;;;20.04;62.40
45285;BME280;31026;43.780;25.948;2023-04-26T11:22:02;99795.25;;;20.16;61.86
45285;BME280;31026;43.780;25.948;2023-04-26T11:24:30;99793.25;;;20.18;61.17
45285;BME280;31026;43.780;25.948;2023-04-26T11:27:01;99789.88;;;20.33;58.99
45285;BME280;31026;43.780;25.948;2023-04-26T11:29:35;99790.22;;;20.30;60.62
45285;BME280;31026;43.780;25.948;2023-04-26T11:32:03;99793.91;;;20.20;60.12
45285;BME280;31026;43.780;25.948;2023-04-26T11:34:35;99790.56;;;20.18;61.59
45285;BME280;31026;43.780;25.948;2023-04-26T11:37:04;99782.19;;;20.21;61.30
45285;BME280;31026;43.780;25.948;2023-04-26T11:39:33;99785.84;;;20.20;61.12
45285;BME280;31026;43.780;25.948;2023-04-26T11:42:04;99779.66;;;20.12;59.44
45285;BME280;31026;43.780;25.948;2023-04-26T11:44:33;99781.31;;;20.04;59.98
45285;BME280;31026;43.780;25.948;2023-04-26T11:47:01;99780.47;;;19.96;60.32
45285;BME280;31026;43.780;25.948;2023-04-26T11:49:30;99783.66;;;19.99;61.60
45285;BME280;31026;43.780;25.948;2023-04-26T11:52:02;99781.31;;;19.88;57.49
45285;BME280;31026;43.780;25.948;2023-04-26T11:54:30;99788.81;;;19.76;55.83
45285;BME280;31026;43.780;25.948;2023-04-26T11:57:00;99787.09;;;19.67;54.13
45285;BME280;31026;43.780;25.948;2023-04-26T11:59:29;99783.19;;;19.61;52.09
45285;BME280;31026;43.780;25.948;2023-04-26T12:01:57;99790.84;;;19.82;54.02
45285;BME280;31026;43.780;25.948;2023-04-26T12:04:26;99771.56;;;19.95;54.77
45285;BME280;31026;43.780;25.948;2023-04-26T12:06:56;99785.78;;;19.71;50.90
45285;BME280;31026;43.780;25.948;2023-04-26T12:09:27;99792.44;;;19.67;50.28
45285;BME280;31026;43.780;25.948;2023-04-26T12:11:56;99782.38;;;19.61;51.20
45285;BME280;31026;43.780;25.948;2023-04-26T12:14:29;99778.41;;;19.73;50.47
45285;BME280;31026;43.780;25.948;2023-04-26T12:16:58;99789.91;;;19.57;51.33
45285;BME280;31026;43.780;25.948;2023-04-26T12:19:27;99767.31;;;19.60;50.48
45285;BME280;31026;43.780;25.948;2023-04-26T12:21:55;99768.06;;;20.03;51.88
45285;BME280;31026;43.780;25.948;2023-04-26T12:24:25;99771.91;;;20.17;53.88
45285;BME280;31026;43.780;25.948;2023-04-26T12:26:56;99783.69;;;20.16;55.21
45285;BME280;31026;43.780;25.948;2023-04-26T12:29:25;99765.06;;;20.14;55.70
45285;BME280;31026;43.780;25.948;2023-04-26T12:31:54;99748.28;;;20.04;56.55
45285;BME280;31026;43.780;25.948;2023-04-26T12:34:23;99756.31;;;20.12;55.07
45285;BME280;31026;43.780;25.948;2023-04-26T12:36:51;99761.84;;;20.11;55.31
45285;BME280;31026;43.780;25.948;2023-04-26T12:39:19;99764.72;;;20.34;55.26
45285;BME280;31026;43.780;25.948;2023-04-26T12:41:48;99754.47;;;20.29;56.25
45285;BME280;31026;43.780;25.948;2023-04-26T12:44:19;99759.16;;;20.27;56.93
45285;BME280;31026;43.780;25.948;2023-04-26T12:46:47;99753.78;;;20.27;56.97
45285;BME280;31026;43.780;25.948;2023-04-26T12:49:15;99762.03;;;20.25;57.21
45285;BME280;31026;43.780;25.948;2023-04-26T12:51:44;99764.38;;;20.37;56.23
45285;BME280;31026;43.780;25.948;2023-04-26T12:54:12;99761.00;;;20.35;55.89
45285;BME280;31026;43.780;25.948;2023-04-26T12:56:40;99747.59;;;20.35;55.70
45285;BME280;31026;43.780;25.948;2023-04-26T12:59:10;99739.53;;;20.35;54.62
45285;BME280;31026;43.780;25.948;2023-04-26T13:01:41;99761.03;;;20.26;56.22
45285;BME280;31026;43.780;25.948;2023-04-26T13:04:09;99773.09;;;20.31;56.76
45285;BME280;31026;43.780;25.948;2023-04-26T13:06:39;99757.16;;;20.45;55.62
45285;BME280;31026;43.780;25.948;2023-04-26T13:09:07;99768.91;;;20.36;56.34
45285;BME280;31026;43.780;25.948;2023-04-26T13:11:37;99766.72;;;20.40;55.46